Matador, Texas
Current Conditions -  °F | °C
As of 5:53 AM on Sunday 25 Jan 2015 (Local Time) from KCDS Reporting Station
Clear Clear  
Wind Chill: 33°   Ceiling: Unl
Heat Index: 40°   Visibility: 10mi
Dew Point: 31°   Wind: 13mph
Humidity: 70%   Direction: 320°NW
Pressure: 30.09"   Gusts: NA
Location:  34.01°N, 100.82°W
Report Text: KCDS 251153Z AUTO 32011KT 10SM CLR 04/M01 A3009 RMK AO2 SLP188 T00441006 10061 20039 53014
Loading
Personal Weather Stations






























Interactive Weather Map New forecast layout! Learn more

10-Day Weather Forecast

Advertisements
Track Severe Weather on mobile